createdAt,value
2019-05-23T00:02:43.743Z,3.80
2019-05-23T00:05:47.957Z,4.35
2019-05-23T00:08:37.360Z,4.15
2019-05-23T00:11:27.809Z,4.35
2019-05-23T00:14:09.611Z,4.22
2019-05-23T00:16:42.626Z,3.70
2019-05-23T00:19:14.465Z,4.00
2019-05-23T00:21:44.145Z,3.83
2019-05-23T00:24:14.007Z,3.72
2019-05-23T00:26:44.933Z,3.40
2019-05-23T00:29:14.989Z,3.40
2019-05-23T00:31:47.301Z,4.20
2019-05-23T00:34:17.675Z,3.33
2019-05-23T00:36:49.633Z,3.12
2019-05-23T00:39:19.915Z,3.17
2019-05-23T00:41:49.687Z,3.20
2019-05-23T00:44:20.037Z,3.40
2019-05-23T00:46:50.079Z,3.42
2019-05-23T00:49:19.756Z,3.35
2019-05-23T00:51:49.438Z,3.15
2019-05-23T00:54:19.682Z,3.08
2019-05-23T00:56:50.419Z,3.27
2019-05-23T00:59:27.292Z,2.90
2019-05-23T01:01:52.379Z,2.80
2019-05-23T01:04:22.117Z,3.17
2019-05-23T01:06:52.347Z,3.05
2019-05-23T01:09:22.899Z,2.70
2019-05-23T01:11:54.186Z,3.12
2019-05-23T01:14:24.901Z,3.22
2019-05-23T01:16:54.910Z,2.65
2019-05-23T01:19:25.188Z,3.00
2019-05-23T01:21:59.392Z,2.87
2019-05-23T01:24:30.896Z,2.75
2019-05-23T01:27:02.042Z,2.90
2019-05-23T01:29:37.799Z,3.15
2019-05-23T01:32:07.782Z,2.92
2019-05-23T01:34:39.616Z,2.80
2019-05-23T01:37:10.201Z,2.87
2019-05-23T01:39:39.950Z,2.70
2019-05-23T01:42:10.290Z,2.80
2019-05-23T01:44:40.747Z,2.80
2019-05-23T01:47:11.511Z,2.60
2019-05-23T01:49:41.165Z,2.92
2019-05-23T01:52:11.901Z,2.52
2019-05-23T01:54:42.450Z,2.72
2019-05-23T01:57:12.857Z,2.50
2019-05-23T01:59:42.935Z,2.87
2019-05-23T02:02:13.976Z,3.02
2019-05-23T02:04:44.244Z,2.55
2019-05-23T02:07:14.414Z,2.85
2019-05-23T02:09:44.186Z,2.80
2019-05-23T02:12:14.205Z,2.40
2019-05-23T02:14:44.379Z,2.87
2019-05-23T02:17:14.583Z,2.72
2019-05-23T02:19:45.013Z,2.40
2019-05-23T02:22:14.770Z,2.77
2019-05-23T02:24:44.734Z,2.33
2019-05-23T02:27:15.194Z,2.52
2019-05-23T02:29:44.856Z,2.62
2019-05-23T02:32:15.113Z,2.33
2019-05-23T02:34:45.639Z,2.47
2019-05-23T02:37:17.007Z,2.72
2019-05-23T02:39:54.610Z,2.47
2019-05-23T02:42:26.548Z,2.30
2019-05-23T02:44:56.794Z,2.35
2019-05-23T02:47:36.794Z,2.55
2019-05-23T02:50:11.249Z,3.02
2019-05-23T02:52:49.965Z,3.20
2019-05-23T02:55:23.348Z,2.75
2019-05-23T02:57:54.320Z,2.55
2019-05-23T03:00:27.385Z,2.55
2019-05-23T03:03:00.310Z,2.60
2019-05-23T03:05:31.714Z,2.60
2019-05-23T03:08:04.609Z,2.40
2019-05-23T03:10:54.119Z,2.72
2019-05-23T03:13:26.486Z,2.70
2019-05-23T03:15:58.314Z,2.80
2019-05-23T03:18:34.518Z,2.60
2019-05-23T03:21:05.861Z,2.50
2019-05-23T03:23:36.363Z,2.90
2019-05-23T03:26:33.455Z,2.77
2019-05-23T03:29:04.804Z,3.00
2019-05-23T03:31:37.433Z,2.60
2019-05-23T03:34:09.838Z,2.92
2019-05-23T03:36:39.519Z,2.92
2019-05-23T03:39:11.446Z,3.15
2019-05-23T03:41:41.400Z,2.80
2019-05-23T03:44:11.942Z,2.62
2019-05-23T03:46:49.379Z,3.40
2019-05-23T03:49:20.691Z,3.42
2019-05-23T03:51:50.955Z,2.83
2019-05-23T03:54:21.135Z,2.72
2019-05-23T03:56:52.547Z,2.65
2019-05-23T03:59:25.307Z,2.27
2019-05-23T04:01:56.258Z,2.72
2019-05-23T04:04:27.690Z,3.10
2019-05-23T04:06:59.759Z,2.70
2019-05-23T04:09:29.794Z,2.70
2019-05-23T04:11:59.480Z,2.65
2019-05-23T04:14:29.607Z,2.80
2019-05-23T04:17:00.282Z,2.80
2019-05-23T04:19:30.195Z,2.60
2019-05-23T04:22:00.148Z,2.90
2019-05-23T04:24:29.902Z,3.08
2019-05-23T04:26:59.582Z,3.05
2019-05-23T04:29:29.483Z,2.60
2019-05-23T04:32:07.963Z,2.40
2019-05-23T04:34:30.922Z,2.50
2019-05-23T04:37:00.804Z,2.58
2019-05-23T04:39:30.619Z,2.67
2019-05-23T04:42:00.878Z,2.67
2019-05-23T04:44:30.712Z,2.58
2019-05-23T04:47:00.414Z,2.37
2019-05-23T04:49:30.122Z,2.85
2019-05-23T04:52:00.653Z,2.72
2019-05-23T04:54:31.001Z,2.90
2019-05-23T04:57:01.442Z,2.50
2019-05-23T04:59:31.141Z,2.40
2019-05-23T05:02:01.254Z,2.70
2019-05-23T05:04:31.735Z,2.55
2019-05-23T05:07:01.394Z,2.58
2019-05-23T05:09:32.761Z,2.77
2019-05-23T05:12:02.779Z,2.27
2019-05-23T05:14:32.693Z,2.75
2019-05-23T05:17:03.188Z,2.45
2019-05-23T05:19:33.149Z,2.22
2019-05-23T05:22:02.907Z,2.60
2019-05-23T05:24:32.572Z,2.20
2019-05-23T05:27:02.929Z,2.30
2019-05-23T05:29:32.609Z,2.02
2019-05-23T05:32:03.829Z,2.20
2019-05-23T05:34:34.085Z,2.20
2019-05-23T05:37:04.145Z,2.17
2019-05-23T05:39:34.245Z,2.10
2019-05-23T05:42:05.750Z,2.40
2019-05-23T05:44:35.970Z,2.15
2019-05-23T05:47:05.918Z,2.12
2019-05-23T05:49:36.007Z,1.80
2019-05-23T05:52:07.441Z,2.40
2019-05-23T05:54:37.466Z,2.05
2019-05-23T05:57:07.424Z,2.30
2019-05-23T05:59:37.084Z,1.82
2019-05-23T06:02:08.607Z,2.15
2019-05-23T06:04:38.266Z,2.10
2019-05-23T06:07:15.881Z,2.52
2019-05-23T06:09:47.472Z,2.47
2019-05-23T06:12:17.526Z,2.33
2019-05-23T06:14:47.202Z,2.22
2019-05-23T06:17:18.643Z,2.08
2019-05-23T06:19:48.747Z,1.98
2019-05-23T06:22:20.199Z,1.82
2019-05-23T06:24:53.786Z,1.70
2019-05-23T06:27:22.466Z,1.50
2019-05-23T06:29:52.235Z,1.70
2019-05-23T06:32:23.930Z,2.22
2019-05-23T06:34:55.269Z,1.90
2019-05-23T06:37:25.333Z,1.67
2019-05-23T06:39:55.286Z,1.90
2019-05-23T06:42:25.634Z,2.20
2019-05-23T06:44:56.066Z,2.15
2019-05-23T06:47:26.110Z,1.72
2019-05-23T06:49:55.870Z,1.50
2019-05-23T06:52:25.539Z,1.32
2019-05-23T06:54:59.617Z,1.75
2019-05-23T06:57:27.719Z,1.77
2019-05-23T06:59:57.489Z,2.25
2019-05-23T07:02:31.578Z,1.70
2019-05-23T07:04:59.230Z,1.70
2019-05-23T07:07:29.358Z,1.50
2019-05-23T07:10:00.126Z,1.85
2019-05-23T07:12:29.778Z,2.10
2019-05-23T07:14:59.450Z,1.57
2019-05-23T07:17:29.146Z,1.60
2019-05-23T07:19:59.140Z,1.67
2019-05-23T07:22:28.802Z,1.55
2019-05-23T07:24:59.096Z,1.80
2019-05-23T07:27:29.627Z,2.27
2019-05-23T07:29:59.538Z,1.75
2019-05-23T07:32:29.286Z,1.80
2019-05-23T07:34:58.870Z,1.77
2019-05-23T07:37:28.778Z,1.75
2019-05-23T07:39:58.538Z,1.80
2019-05-23T07:42:28.216Z,1.60
2019-05-23T07:44:59.841Z,1.50
2019-05-23T07:47:29.525Z,1.70
2019-05-23T07:49:59.191Z,1.82
2019-05-23T07:52:29.279Z,1.80
2019-05-23T07:55:00.574Z,1.57
2019-05-23T07:57:30.554Z,1.82
2019-05-23T08:00:00.616Z,1.92
2019-05-23T08:02:36.196Z,1.75
2019-05-23T08:05:07.315Z,2.05
2019-05-23T08:07:38.175Z,1.87
2019-05-23T08:10:09.201Z,2.00
2019-05-23T08:12:39.754Z,1.90
2019-05-23T08:15:11.189Z,1.65
2019-05-23T08:17:41.070Z,1.55
2019-05-23T08:20:12.905Z,1.87
2019-05-23T08:22:42.590Z,1.98
2019-05-23T08:25:12.274Z,1.82
2019-05-23T08:27:42.842Z,1.70
2019-05-23T08:30:13.370Z,2.10
2019-05-23T08:32:43.926Z,2.00
2019-05-23T08:35:17.724Z,1.80
2019-05-23T08:37:46.268Z,1.20
2019-05-23T08:40:17.083Z,1.35
2019-05-23T08:42:47.237Z,1.10
2019-05-23T08:45:17.782Z,1.10
2019-05-23T08:47:47.550Z,1.07
2019-05-23T08:50:18.822Z,1.00
2019-05-23T08:52:48.502Z,1.00
2019-05-23T08:55:24.018Z,1.10
2019-05-23T08:57:56.004Z,1.30
2019-05-23T09:00:27.718Z,1.10
2019-05-23T09:02:59.091Z,1.50
2019-05-23T09:05:30.541Z,1.02
2019-05-23T09:08:01.126Z,0.88
2019-05-23T09:10:32.958Z,0.93
2019-05-23T09:13:02.645Z,0.75
2019-05-23T09:15:33.407Z,1.10
2019-05-23T09:18:04.202Z,1.45
2019-05-23T09:20:34.258Z,1.10
2019-05-23T09:23:05.249Z,1.10
2019-05-23T09:25:35.179Z,1.10
2019-05-23T09:28:05.760Z,0.68
2019-05-23T09:30:35.494Z,1.10
2019-05-23T09:33:06.089Z,0.80
2019-05-23T09:35:36.202Z,0.60
2019-05-23T09:38:06.187Z,0.57
2019-05-23T09:40:36.691Z,0.50
2019-05-23T09:43:07.341Z,1.10
2019-05-23T09:45:37.671Z,0.80
2019-05-23T09:48:07.646Z,0.70
2019-05-23T09:50:37.686Z,0.70
2019-05-23T09:53:07.547Z,0.42
2019-05-23T09:55:38.614Z,0.60
2019-05-23T09:58:08.902Z,0.57
2019-05-23T10:00:40.334Z,0.68
2019-05-23T10:03:10.385Z,0.80
2019-05-23T10:05:43.197Z,1.00
2019-05-23T10:08:11.845Z,0.80
2019-05-23T10:10:41.814Z,0.95
2019-05-23T10:13:12.353Z,1.20
2019-05-23T10:15:43.689Z,1.35
2019-05-23T10:18:18.012Z,1.45
2019-05-23T10:20:47.938Z,1.20
2019-05-23T10:23:17.918Z,1.50
2019-05-23T10:25:47.674Z,1.80
2019-05-23T10:28:17.558Z,1.20
2019-05-23T10:30:47.307Z,1.32
2019-05-23T10:33:17.115Z,0.98
2019-05-23T10:35:59.905Z,1.67
2019-05-23T10:38:18.169Z,1.77
2019-05-23T10:40:48.146Z,1.62
2019-05-23T10:43:18.077Z,1.80
2019-05-23T10:45:48.562Z,2.70
2019-05-23T10:48:19.115Z,1.92
2019-05-23T10:50:48.899Z,2.12
2019-05-23T10:53:19.292Z,1.90
2019-05-23T10:55:48.978Z,1.98
2019-05-23T10:58:18.721Z,2.10
2019-05-23T11:00:51.350Z,2.20
2019-05-23T11:03:22.402Z,1.50
2019-05-23T11:05:54.312Z,2.30
2019-05-23T11:08:28.793Z,1.90
2019-05-23T11:10:58.182Z,2.00
2019-05-23T11:13:27.933Z,1.70
2019-05-23T11:15:57.686Z,2.10
2019-05-23T11:18:27.439Z,1.90
2019-05-23T11:20:57.166Z,1.98
2019-05-23T11:23:28.979Z,2.20
2019-05-23T11:26:01.225Z,1.60
2019-05-23T11:28:31.641Z,1.72
2019-05-23T11:31:01.919Z,1.90
2019-05-23T11:33:32.211Z,1.80
2019-05-23T11:36:01.876Z,1.80
2019-05-23T11:38:31.726Z,1.70
2019-05-23T11:41:01.726Z,2.00
2019-05-23T11:43:31.373Z,2.30
2019-05-23T11:46:03.181Z,2.27
2019-05-23T11:48:34.759Z,2.02
2019-05-23T11:54:10.215Z,2.20
2019-05-23T11:56:40.279Z,3.27
2019-05-23T11:59:10.176Z,2.35
2019-05-23T12:01:53.742Z,2.47
2019-05-23T12:04:23.897Z,2.17
2019-05-23T12:06:57.931Z,2.50
2019-05-23T12:09:27.713Z,2.30
2019-05-23T12:11:57.475Z,2.62
2019-05-23T12:14:27.139Z,2.47
2019-05-23T12:16:57.687Z,2.55
2019-05-23T12:19:27.820Z,2.52
2019-05-23T12:21:57.648Z,2.60
2019-05-23T12:24:27.502Z,2.77
2019-05-23T12:26:57.379Z,2.55
2019-05-23T12:29:27.150Z,2.10
2019-05-23T12:31:57.461Z,2.27
2019-05-23T12:34:27.296Z,2.33
2019-05-23T12:37:17.307Z,1.90
2019-05-23T12:39:28.437Z,1.80
2019-05-23T12:41:58.102Z,1.60
2019-05-23T12:44:28.136Z,1.40
2019-05-23T12:46:58.682Z,1.45
2019-05-23T12:49:39.199Z,1.22
2019-05-23T12:52:09.443Z,1.50
2019-05-23T12:54:39.787Z,1.30
2019-05-23T12:57:09.477Z,1.42
2019-05-23T12:59:39.621Z,1.55
2019-05-23T13:02:10.944Z,1.47
2019-05-23T13:04:41.554Z,1.50
2019-05-23T13:07:11.671Z,1.50
2019-05-23T13:09:41.493Z,1.45
2019-05-23T13:12:11.702Z,1.42
2019-05-23T13:14:41.471Z,1.60
2019-05-23T13:17:11.347Z,1.90
2019-05-23T13:19:41.339Z,1.90
2019-05-23T13:22:11.590Z,2.10
2019-05-23T13:24:51.812Z,2.10
2019-05-23T13:27:13.519Z,1.40
2019-05-23T13:29:43.257Z,1.47
2019-05-23T13:32:13.190Z,1.42
2019-05-23T13:34:42.874Z,1.50
2019-05-23T13:37:17.094Z,1.35
2019-05-23T13:39:49.410Z,1.30
2019-05-23T13:42:20.198Z,1.50
2019-05-23T13:44:49.978Z,1.57
2019-05-23T13:47:19.670Z,1.40
2019-05-23T13:49:49.326Z,1.05
2019-05-23T13:52:19.035Z,1.20
2019-05-23T13:54:49.979Z,1.10
2019-05-23T13:57:19.854Z,1.10
2019-05-23T13:59:49.620Z,1.30
2019-05-23T14:02:19.871Z,0.95
2019-05-23T14:04:49.909Z,1.30
2019-05-23T14:07:19.865Z,1.20
2019-05-23T14:09:49.782Z,0.90
2019-05-23T14:12:21.559Z,1.10
2019-05-23T14:14:51.402Z,1.15
2019-05-23T14:17:22.734Z,1.15
2019-05-23T14:19:52.412Z,1.40
2019-05-23T14:22:22.774Z,1.00
2019-05-23T14:24:52.472Z,1.25
2019-05-23T14:27:23.966Z,1.37
2019-05-23T14:29:53.730Z,1.35
2019-05-23T14:32:41.536Z,1.25
2019-05-23T14:35:12.842Z,1.20
2019-05-23T14:37:44.203Z,1.20
2019-05-23T14:40:14.521Z,1.17
2019-05-23T14:43:02.522Z,1.20
2019-05-23T14:45:50.435Z,1.20
2019-05-23T14:48:24.747Z,1.30
2019-05-23T14:51:12.203Z,1.22
2019-05-23T14:53:55.014Z,1.05
2019-05-23T14:56:26.254Z,1.23
2019-05-23T14:58:56.020Z,1.10
2019-05-23T15:01:29.222Z,1.22
2019-05-23T15:03:59.195Z,1.22
2019-05-23T15:06:28.853Z,1.00
2019-05-23T15:08:58.543Z,1.00
2019-05-23T15:11:28.705Z,1.55
2019-05-23T15:13:58.592Z,1.30
2019-05-23T15:16:28.332Z,1.42
2019-05-23T15:18:58.223Z,1.15
2019-05-23T15:21:27.899Z,1.40
2019-05-23T15:23:58.079Z,1.30
2019-05-23T15:26:28.007Z,1.30
2019-05-23T15:28:57.696Z,1.25
2019-05-23T15:31:27.362Z,1.30
2019-05-23T15:33:57.137Z,1.20
2019-05-23T15:36:26.823Z,1.27
2019-05-23T15:39:09.070Z,1.22
2019-05-23T15:41:28.462Z,0.93
2019-05-23T15:43:58.135Z,0.98
2019-05-23T15:46:27.998Z,1.20
2019-05-23T15:48:57.756Z,1.25
2019-05-23T15:51:31.872Z,1.30
2019-05-23T15:54:07.405Z,1.30
2019-05-23T15:56:44.759Z,1.40
2019-05-23T15:59:18.877Z,1.20
2019-05-23T16:02:05.203Z,1.00
2019-05-23T16:04:36.091Z,0.80
2019-05-23T16:07:07.061Z,1.02
2019-05-23T16:09:37.061Z,0.90
2019-05-23T16:12:07.611Z,0.80
2019-05-23T16:14:37.599Z,1.15
2019-05-23T16:17:07.742Z,1.30
2019-05-23T16:19:37.533Z,0.98
2019-05-23T16:22:07.666Z,1.00
2019-05-23T16:24:37.461Z,0.95
2019-05-23T16:27:08.802Z,1.00
2019-05-23T16:29:38.967Z,1.00
2019-05-23T16:32:08.736Z,1.00
2019-05-23T16:34:38.548Z,0.90
2019-05-23T16:37:08.239Z,1.00
2019-05-23T16:39:47.212Z,1.12
2019-05-23T16:42:09.289Z,0.90
2019-05-23T16:44:38.991Z,0.90
2019-05-23T16:47:08.653Z,0.70
2019-05-23T16:49:38.535Z,0.90
2019-05-23T16:52:08.370Z,0.68
2019-05-23T16:54:39.790Z,1.17
2019-05-23T16:57:14.297Z,1.00
2019-05-23T16:59:48.312Z,0.80
2019-05-23T17:02:39.243Z,0.60
2019-05-23T17:05:19.567Z,0.78
2019-05-23T17:07:53.624Z,0.53
2019-05-23T17:10:36.724Z,0.80
2019-05-23T17:13:08.039Z,0.70
2019-05-23T17:15:43.059Z,0.75
2019-05-23T17:18:20.400Z,0.70
2019-05-23T17:20:54.686Z,0.78
2019-05-23T17:23:44.080Z,1.00
2019-05-23T17:26:15.387Z,0.90
2019-05-23T17:28:46.727Z,0.93
2019-05-23T17:31:21.092Z,0.88
2019-05-23T17:33:51.270Z,0.90
2019-05-23T17:36:21.210Z,0.90
2019-05-23T17:38:51.643Z,0.88
2019-05-23T17:41:21.878Z,0.68
2019-05-23T17:43:51.658Z,0.70
2019-05-23T17:46:21.363Z,0.80
2019-05-23T17:48:51.047Z,1.10
2019-05-23T17:51:21.111Z,0.78
2019-05-23T17:53:50.838Z,0.90
2019-05-23T17:56:20.630Z,0.80
2019-05-23T17:58:50.554Z,0.78
2019-05-23T18:01:20.388Z,0.80
2019-05-23T18:03:50.248Z,0.50
2019-05-23T18:06:20.989Z,0.80
2019-05-23T18:08:50.674Z,0.68
2019-05-23T18:11:21.610Z,0.80
2019-05-23T18:13:51.495Z,0.70
2019-05-23T18:16:21.826Z,0.70
2019-05-23T18:18:51.709Z,0.80
2019-05-23T18:21:23.254Z,0.90
2019-05-23T18:23:54.058Z,6.72
2019-05-23T18:26:24.707Z,1.47
2019-05-23T18:28:54.773Z,3.45
2019-05-23T18:31:29.164Z,1.55
2019-05-23T18:33:59.490Z,0.80
2019-05-23T18:36:30.436Z,0.70
2019-05-23T18:39:01.838Z,0.65
2019-05-23T18:41:32.689Z,0.70
2019-05-23T18:44:03.643Z,0.70
2019-05-23T18:46:37.463Z,0.60
2019-05-23T18:49:08.009Z,0.60
2019-05-23T18:51:37.884Z,0.53
2019-05-23T18:54:07.842Z,0.60
2019-05-23T18:56:37.612Z,0.80
2019-05-23T18:59:08.200Z,0.75
2019-05-23T19:01:38.238Z,0.70
2019-05-23T19:04:07.987Z,0.60
2019-05-23T19:06:37.656Z,0.60
2019-05-23T19:09:11.367Z,0.70
2019-05-23T19:11:41.118Z,0.65
2019-05-23T19:14:11.042Z,1.00
2019-05-23T19:16:40.704Z,0.55
2019-05-23T19:19:11.954Z,0.50
2019-05-23T19:21:41.824Z,0.90
2019-05-23T19:24:12.073Z,0.45
2019-05-23T19:26:43.894Z,0.70
2019-05-23T19:29:13.880Z,0.70
2019-05-23T19:31:43.854Z,0.70
2019-05-23T19:34:14.260Z,0.78
2019-05-23T19:36:43.918Z,0.78
2019-05-23T19:39:14.582Z,0.82
2019-05-23T19:41:44.244Z,0.75
2019-05-23T19:44:14.239Z,1.07
2019-05-23T19:46:44.800Z,1.20
2019-05-23T19:49:14.671Z,1.17
2019-05-23T19:51:44.366Z,1.82
2019-05-23T19:54:14.027Z,1.90
2019-05-23T19:56:43.964Z,1.37
2019-05-23T19:59:13.926Z,1.30
2019-05-23T20:02:01.568Z,1.50
2019-05-23T20:04:32.851Z,1.60
2019-05-23T20:07:02.786Z,1.40
2019-05-23T20:09:33.151Z,1.30
2019-05-23T20:12:04.578Z,1.40
2019-05-23T20:14:34.419Z,1.30
2019-05-23T20:17:04.279Z,1.57
2019-05-23T20:19:33.951Z,1.30
2019-05-23T20:22:03.672Z,1.60
2019-05-23T20:24:33.306Z,1.62
2019-05-23T20:27:03.291Z,1.90
2019-05-23T20:29:32.961Z,1.70
2019-05-23T20:32:04.271Z,1.67
2019-05-23T20:34:34.021Z,1.70
2019-05-23T20:37:04.002Z,1.52
2019-05-23T20:39:34.166Z,2.00
2019-05-23T20:42:11.452Z,2.00
2019-05-23T20:44:35.406Z,1.85
2019-05-23T20:47:06.135Z,2.12
2019-05-23T20:49:36.313Z,1.70
2019-05-23T20:52:06.154Z,2.60
2019-05-23T20:54:35.933Z,2.00
2019-05-23T20:57:05.623Z,2.30
2019-05-23T20:59:36.186Z,2.35
2019-05-23T21:02:06.127Z,2.22
2019-05-23T21:04:36.195Z,2.20
2019-05-23T21:07:05.918Z,2.65
2019-05-23T21:09:35.811Z,2.47
2019-05-23T21:12:05.643Z,2.95
2019-05-23T21:14:35.522Z,2.60
2019-05-23T21:17:05.209Z,3.20
2019-05-23T21:19:34.907Z,3.02
2019-05-23T21:22:04.783Z,3.20
2019-05-23T21:24:34.924Z,3.47
2019-05-23T21:27:04.583Z,3.02
2019-05-23T21:29:34.434Z,3.05
2019-05-23T21:32:04.284Z,3.08
2019-05-23T21:34:34.005Z,2.83
2019-05-23T21:37:03.768Z,3.52
2019-05-23T21:39:33.646Z,2.83
2019-05-23T21:42:03.839Z,3.35
2019-05-23T21:44:33.528Z,2.77
2019-05-23T21:47:03.324Z,2.87
2019-05-23T21:49:32.954Z,2.65
2019-05-23T21:52:02.619Z,2.95
2019-05-23T21:54:32.354Z,2.77
2019-05-23T21:57:02.050Z,2.77
2019-05-23T21:59:31.741Z,2.90
2019-05-23T22:02:06.093Z,3.00
2019-05-23T22:04:37.430Z,3.20
2019-05-23T22:07:07.147Z,3.17
2019-05-23T22:12:41.065Z,2.83
2019-05-23T22:15:10.796Z,2.72
2019-05-23T22:17:40.710Z,2.70
2019-05-23T22:20:10.401Z,3.33
2019-05-23T22:22:40.093Z,2.52
2019-05-23T22:25:12.762Z,3.10
2019-05-23T22:27:43.157Z,3.33
2019-05-23T22:30:14.424Z,3.42
2019-05-23T22:32:44.110Z,2.92
2019-05-23T22:35:15.430Z,3.00
2019-05-23T22:37:46.085Z,3.20
2019-05-23T22:40:15.943Z,3.40
2019-05-23T22:42:45.613Z,3.17
2019-05-23T22:45:17.187Z,3.65
2019-05-23T22:47:46.855Z,3.37
2019-05-23T22:50:17.338Z,3.70
2019-05-23T22:52:47.165Z,3.33
2019-05-23T22:55:16.835Z,3.67
2019-05-23T22:57:46.482Z,4.03
2019-05-23T23:00:18.209Z,4.15
2019-05-23T23:02:47.872Z,3.90
2019-05-23T23:05:17.651Z,4.55
2019-05-23T23:07:47.353Z,4.33
2019-05-23T23:10:18.340Z,4.35
2019-05-23T23:12:48.010Z,4.65
2019-05-23T23:15:17.750Z,4.30
2019-05-23T23:17:47.443Z,4.75
2019-05-23T23:20:17.287Z,4.87
2019-05-23T23:22:46.956Z,5.20
2019-05-23T23:25:16.623Z,4.85
2019-05-23T23:27:46.318Z,5.55
2019-05-23T23:30:17.942Z,5.85
2019-05-23T23:32:47.584Z,5.90
2019-05-23T23:35:17.266Z,5.83
2019-05-23T23:37:46.933Z,5.37
2019-05-23T23:40:17.082Z,6.10
2019-05-23T23:42:46.789Z,6.20
2019-05-23T23:45:34.832Z,6.70
2019-05-23T23:48:22.525Z,6.87
2019-05-23T23:51:10.550Z,6.85
2019-05-23T23:53:58.348Z,6.83
2019-05-23T23:56:46.286Z,7.15
2019-05-23T23:59:15.314Z,7.33
